sensor_id;sensor_type;location;lat;lon;timestamp;P1;durP1;ratioP1;P2;durP2;ratioP2
8349;SDS011;60699;48.946;8.412;2023-02-23T00:02:04;28.70;;;15.32;;
8349;SDS011;60699;48.946;8.412;2023-02-23T00:04:31;25.55;;;16.35;;
8349;SDS011;60699;48.946;8.412;2023-02-23T00:06:58;24.35;;;14.13;;
8349;SDS011;60699;48.946;8.412;2023-02-23T00:09:25;24.58;;;16.80;;
8349;SDS011;60699;48.946;8.412;2023-02-23T00:12:00;26.23;;;16.60;;
8349;SDS011;60699;48.946;8.412;2023-02-23T00:14:31;30.33;;;16.02;;
8349;SDS011;60699;48.946;8.412;2023-02-23T00:16:59;24.63;;;15.65;;
8349;SDS011;60699;48.946;8.412;2023-02-23T00:19:26;32.25;;;16.13;;
8349;SDS011;60699;48.946;8.412;2023-02-23T00:21:53;32.13;;;16.17;;
8349;SDS011;60699;48.946;8.412;2023-02-23T00:24:22;28.40;;;17.00;;
8349;SDS011;60699;48.946;8.412;2023-02-23T00:26:50;25.75;;;17.15;;
8349;SDS011;60699;48.946;8.412;2023-02-23T00:29:20;25.17;;;15.27;;
8349;SDS011;60699;48.946;8.412;2023-02-23T00:31:47;23.48;;;15.02;;
8349;SDS011;60699;48.946;8.412;2023-02-23T00:34:16;24.35;;;13.00;;
8349;SDS011;60699;48.946;8.412;2023-02-23T00:36:45;22.50;;;14.00;;
8349;SDS011;60699;48.946;8.412;2023-02-23T00:39:12;27.50;;;15.27;;
8349;SDS011;60699;48.946;8.412;2023-02-23T00:41:45;18.88;;;13.20;;
8349;SDS011;60699;48.946;8.412;2023-02-23T00:44:12;19.98;;;13.52;;
8349;SDS011;60699;48.946;8.412;2023-02-23T00:46:41;24.67;;;13.93;;
8349;SDS011;60699;48.946;8.412;2023-02-23T00:49:09;25.98;;;14.40;;
8349;SDS011;60699;48.946;8.412;2023-02-23T00:51:36;27.27;;;15.05;;
8349;SDS011;60699;48.946;8.412;2023-02-23T00:54:04;18.25;;;13.23;;
8349;SDS011;60699;48.946;8.412;2023-02-23T00:56:31;28.70;;;15.23;;
8349;SDS011;60699;48.946;8.412;2023-02-23T00:58:59;20.92;;;13.50;;
8349;SDS011;60699;48.946;8.412;2023-02-23T01:01:26;21.63;;;13.48;;
8349;SDS011;60699;48.946;8.412;2023-02-23T01:03:54;25.10;;;13.23;;
8349;SDS011;60699;48.946;8.412;2023-02-23T01:06:21;16.63;;;13.43;;
8349;SDS011;60699;48.946;8.412;2023-02-23T01:08:49;21.88;;;12.75;;
8349;SDS011;60699;48.946;8.412;2023-02-23T01:11:16;24.52;;;14.48;;
8349;SDS011;60699;48.946;8.412;2023-02-23T01:13:45;16.25;;;12.60;;
8349;SDS011;60699;48.946;8.412;2023-02-23T01:16:13;19.95;;;12.73;;
8349;SDS011;60699;48.946;8.412;2023-02-23T01:18:41;23.02;;;14.00;;
8349;SDS011;60699;48.946;8.412;2023-02-23T01:21:14;19.67;;;15.43;;
8349;SDS011;60699;48.946;8.412;2023-02-23T01:23:41;21.40;;;14.57;;
8349;SDS011;60699;48.946;8.412;2023-02-23T01:26:13;22.33;;;12.95;;
8349;SDS011;60699;48.946;8.412;2023-02-23T01:28:40;18.40;;;13.05;;
8349;SDS011;60699;48.946;8.412;2023-02-23T01:31:07;21.48;;;13.35;;
8349;SDS011;60699;48.946;8.412;2023-02-23T01:33:34;23.60;;;13.95;;
8349;SDS011;60699;48.946;8.412;2023-02-23T01:36:01;18.30;;;13.00;;
8349;SDS011;60699;48.946;8.412;2023-02-23T01:38:29;24.17;;;14.75;;
8349;SDS011;60699;48.946;8.412;2023-02-23T01:40:56;24.17;;;13.75;;
8349;SDS011;60699;48.946;8.412;2023-02-23T01:43:23;19.50;;;12.15;;
8349;SDS011;60699;48.946;8.412;2023-02-23T01:45:51;22.88;;;15.60;;
8349;SDS011;60699;48.946;8.412;2023-02-23T01:48:19;25.33;;;14.13;;
8349;SDS011;60699;48.946;8.412;2023-02-23T01:50:47;26.33;;;14.38;;
8349;SDS011;60699;48.946;8.412;2023-02-23T01:53:16;17.70;;;13.57;;
8349;SDS011;60699;48.946;8.412;2023-02-23T01:55:46;23.10;;;13.25;;
8349;SDS011;60699;48.946;8.412;2023-02-23T01:58:15;18.67;;;13.05;;
8349;SDS011;60699;48.946;8.412;2023-02-23T02:00:45;19.40;;;13.65;;
8349;SDS011;60699;48.946;8.412;2023-02-23T02:03:16;23.83;;;14.13;;
8349;SDS011;60699;48.946;8.412;2023-02-23T02:05:46;21.88;;;14.23;;
8349;SDS011;60699;48.946;8.412;2023-02-23T02:08:14;20.80;;;13.60;;
8349;SDS011;60699;48.946;8.412;2023-02-23T02:10:43;22.73;;;14.52;;
8349;SDS011;60699;48.946;8.412;2023-02-23T02:13:12;21.10;;;15.05;;
8349;SDS011;60699;48.946;8.412;2023-02-23T02:15:45;21.70;;;14.68;;
8349;SDS011;60699;48.946;8.412;2023-02-23T02:18:18;24.15;;;15.93;;
8349;SDS011;60699;48.946;8.412;2023-02-23T02:23:52;30.60;;;15.07;;
8349;SDS011;60699;48.946;8.412;2023-02-23T02:26:32;18.05;;;12.63;;
8349;SDS011;60699;48.946;8.412;2023-02-23T02:29:24;23.10;;;14.00;;
8349;SDS011;60699;48.946;8.412;2023-02-23T02:34:45;23.13;;;13.73;;
8349;SDS011;60699;48.946;8.412;2023-02-23T02:37:21;22.15;;;12.90;;
8349;SDS011;60699;48.946;8.412;2023-02-23T02:39:53;21.80;;;14.00;;
8349;SDS011;60699;48.946;8.412;2023-02-23T02:42:38;24.58;;;14.60;;
8349;SDS011;60699;48.946;8.412;2023-02-23T02:45:12;22.38;;;12.90;;
8349;SDS011;60699;48.946;8.412;2023-02-23T02:47:42;21.27;;;13.55;;
8349;SDS011;60699;48.946;8.412;2023-02-23T02:50:13;21.27;;;13.50;;
8349;SDS011;60699;48.946;8.412;2023-02-23T02:52:41;26.55;;;15.05;;
8349;SDS011;60699;48.946;8.412;2023-02-23T02:55:12;28.50;;;16.05;;
8349;SDS011;60699;48.946;8.412;2023-02-23T02:57:40;28.17;;;15.93;;
8349;SDS011;60699;48.946;8.412;2023-02-23T03:00:12;28.98;;;16.50;;
8349;SDS011;60699;48.946;8.412;2023-02-23T03:02:58;27.30;;;14.73;;
8349;SDS011;60699;48.946;8.412;2023-02-23T03:05:44;22.08;;;12.02;;
8349;SDS011;60699;48.946;8.412;2023-02-23T03:08:32;25.38;;;13.38;;
8349;SDS011;60699;48.946;8.412;2023-02-23T03:11:18;28.02;;;16.25;;
8349;SDS011;60699;48.946;8.412;2023-02-23T03:14:07;22.45;;;14.30;;
8349;SDS011;60699;48.946;8.412;2023-02-23T03:16:55;23.75;;;14.95;;
8349;SDS011;60699;48.946;8.412;2023-02-23T03:19:43;21.73;;;14.65;;
8349;SDS011;60699;48.946;8.412;2023-02-23T03:22:31;22.98;;;14.60;;
8349;SDS011;60699;48.946;8.412;2023-02-23T03:25:21;21.50;;;14.90;;
8349;SDS011;60699;48.946;8.412;2023-02-23T03:28:09;28.13;;;15.30;;
8349;SDS011;60699;48.946;8.412;2023-02-23T03:30:57;26.65;;;15.40;;
8349;SDS011;60699;48.946;8.412;2023-02-23T03:33:44;21.60;;;14.20;;
8349;SDS011;60699;48.946;8.412;2023-02-23T03:36:31;24.75;;;14.90;;
8349;SDS011;60699;48.946;8.412;2023-02-23T03:39:18;26.50;;;16.33;;
8349;SDS011;60699;48.946;8.412;2023-02-23T03:42:08;21.90;;;14.50;;
8349;SDS011;60699;48.946;8.412;2023-02-23T03:44:54;22.65;;;14.32;;
8349;SDS011;60699;48.946;8.412;2023-02-23T03:47:40;17.98;;;13.60;;
8349;SDS011;60699;48.946;8.412;2023-02-23T03:50:27;25.05;;;14.35;;
8349;SDS011;60699;48.946;8.412;2023-02-23T03:53:14;24.65;;;14.82;;
8349;SDS011;60699;48.946;8.412;2023-02-23T03:56:01;22.60;;;14.32;;
8349;SDS011;60699;48.946;8.412;2023-02-23T03:58:48;25.40;;;15.05;;
8349;SDS011;60699;48.946;8.412;2023-02-23T04:01:34;25.65;;;14.80;;
8349;SDS011;60699;48.946;8.412;2023-02-23T04:04:21;19.90;;;13.45;;
8349;SDS011;60699;48.946;8.412;2023-02-23T04:07:07;24.13;;;13.88;;
8349;SDS011;60699;48.946;8.412;2023-02-23T04:09:52;26.75;;;14.45;;
8349;SDS011;60699;48.946;8.412;2023-02-23T04:12:37;23.70;;;14.77;;
8349;SDS011;60699;48.946;8.412;2023-02-23T04:15:26;18.50;;;13.00;;
8349;SDS011;60699;48.946;8.412;2023-02-23T04:17:54;24.23;;;13.60;;
8349;SDS011;60699;48.946;8.412;2023-02-23T04:20:23;21.60;;;12.90;;
8349;SDS011;60699;48.946;8.412;2023-02-23T04:22:50;19.02;;;14.52;;
8349;SDS011;60699;48.946;8.412;2023-02-23T04:25:17;23.30;;;15.77;;
8349;SDS011;60699;48.946;8.412;2023-02-23T04:27:46;26.27;;;15.30;;
8349;SDS011;60699;48.946;8.412;2023-02-23T04:30:14;23.05;;;13.68;;
8349;SDS011;60699;48.946;8.412;2023-02-23T04:32:42;20.00;;;13.48;;
8349;SDS011;60699;48.946;8.412;2023-02-23T04:35:10;23.92;;;14.40;;
8349;SDS011;60699;48.946;8.412;2023-02-23T04:37:37;23.90;;;15.32;;
8349;SDS011;60699;48.946;8.412;2023-02-23T04:40:05;22.70;;;13.45;;
8349;SDS011;60699;48.946;8.412;2023-02-23T04:42:32;21.70;;;14.00;;
8349;SDS011;60699;48.946;8.412;2023-02-23T04:44:59;22.23;;;13.88;;
8349;SDS011;60699;48.946;8.412;2023-02-23T04:47:26;20.17;;;14.85;;
8349;SDS011;60699;48.946;8.412;2023-02-23T04:49:55;20.00;;;14.43;;
8349;SDS011;60699;48.946;8.412;2023-02-23T04:52:22;17.08;;;11.27;;
8349;SDS011;60699;48.946;8.412;2023-02-23T04:54:49;22.60;;;14.68;;
8349;SDS011;60699;48.946;8.412;2023-02-23T04:57:16;25.48;;;14.10;;
8349;SDS011;60699;48.946;8.412;2023-02-23T04:59:43;21.70;;;12.90;;
8349;SDS011;60699;48.946;8.412;2023-02-23T05:02:10;19.55;;;12.50;;
8349;SDS011;60699;48.946;8.412;2023-02-23T05:04:37;19.42;;;12.02;;
8349;SDS011;60699;48.946;8.412;2023-02-23T05:07:05;19.02;;;12.40;;
8349;SDS011;60699;48.946;8.412;2023-02-23T05:09:32;21.90;;;12.85;;
8349;SDS011;60699;48.946;8.412;2023-02-23T05:12:00;19.30;;;13.75;;
8349;SDS011;60699;48.946;8.412;2023-02-23T05:14:27;18.55;;;12.15;;
8349;SDS011;60699;48.946;8.412;2023-02-23T05:16:54;18.23;;;13.25;;
8349;SDS011;60699;48.946;8.412;2023-02-23T05:19:21;17.33;;;11.30;;
8349;SDS011;60699;48.946;8.412;2023-02-23T05:21:48;20.42;;;12.68;;
8349;SDS011;60699;48.946;8.412;2023-02-23T05:24:16;15.05;;;10.15;;
8349;SDS011;60699;48.946;8.412;2023-02-23T05:26:44;17.10;;;10.73;;
8349;SDS011;60699;48.946;8.412;2023-02-23T05:29:12;18.73;;;11.73;;
8349;SDS011;60699;48.946;8.412;2023-02-23T05:31:38;18.02;;;13.43;;
8349;SDS011;60699;48.946;8.412;2023-02-23T05:34:06;12.90;;;10.27;;
8349;SDS011;60699;48.946;8.412;2023-02-23T05:36:34;16.00;;;10.52;;
8349;SDS011;60699;48.946;8.412;2023-02-23T05:39:01;16.30;;;12.85;;
8349;SDS011;60699;48.946;8.412;2023-02-23T05:41:30;17.90;;;12.32;;
8349;SDS011;60699;48.946;8.412;2023-02-23T05:43:57;25.17;;;12.48;;
8349;SDS011;60699;48.946;8.412;2023-02-23T05:46:24;21.15;;;11.65;;
8349;SDS011;60699;48.946;8.412;2023-02-23T05:48:54;14.25;;;10.07;;
8349;SDS011;60699;48.946;8.412;2023-02-23T05:51:21;20.05;;;10.43;;
8349;SDS011;60699;48.946;8.412;2023-02-23T05:53:48;12.75;;;9.02;;
8349;SDS011;60699;48.946;8.412;2023-02-23T05:56:16;14.50;;;11.27;;
8349;SDS011;60699;48.946;8.412;2023-02-23T05:58:46;22.73;;;12.65;;
8349;SDS011;60699;48.946;8.412;2023-02-23T06:01:13;26.08;;;12.05;;
8349;SDS011;60699;48.946;8.412;2023-02-23T06:03:41;19.95;;;11.02;;
8349;SDS011;60699;48.946;8.412;2023-02-23T06:06:08;18.67;;;11.70;;
8349;SDS011;60699;48.946;8.412;2023-02-23T06:08:35;18.13;;;10.57;;
8349;SDS011;60699;48.946;8.412;2023-02-23T06:11:02;16.48;;;9.95;;
8349;SDS011;60699;48.946;8.412;2023-02-23T06:13:29;19.70;;;10.90;;
8349;SDS011;60699;48.946;8.412;2023-02-23T06:15:58;15.07;;;11.45;;
8349;SDS011;60699;48.946;8.412;2023-02-23T06:18:25;20.42;;;11.70;;
8349;SDS011;60699;48.946;8.412;2023-02-23T06:20:52;17.30;;;11.38;;
8349;SDS011;60699;48.946;8.412;2023-02-23T06:23:19;15.98;;;10.15;;
8349;SDS011;60699;48.946;8.412;2023-02-23T06:25:46;14.70;;;10.00;;
8349;SDS011;60699;48.946;8.412;2023-02-23T06:28:13;15.13;;;10.95;;
8349;SDS011;60699;48.946;8.412;2023-02-23T06:30:40;25.58;;;10.77;;
8349;SDS011;60699;48.946;8.412;2023-02-23T06:33:10;19.60;;;12.38;;
8349;SDS011;60699;48.946;8.412;2023-02-23T06:35:37;17.20;;;11.20;;
8349;SDS011;60699;48.946;8.412;2023-02-23T06:38:04;19.15;;;13.15;;
8349;SDS011;60699;48.946;8.412;2023-02-23T06:40:31;15.93;;;11.90;;
8349;SDS011;60699;48.946;8.412;2023-02-23T06:42:59;20.05;;;12.63;;
8349;SDS011;60699;48.946;8.412;2023-02-23T06:45:27;18.83;;;11.45;;
8349;SDS011;60699;48.946;8.412;2023-02-23T06:47:55;19.35;;;11.57;;
8349;SDS011;60699;48.946;8.412;2023-02-23T06:50:24;20.13;;;11.98;;
8349;SDS011;60699;48.946;8.412;2023-02-23T06:52:51;15.13;;;10.77;;
8349;SDS011;60699;48.946;8.412;2023-02-23T06:55:18;14.95;;;10.52;;
8349;SDS011;60699;48.946;8.412;2023-02-23T06:57:47;19.65;;;11.55;;
8349;SDS011;60699;48.946;8.412;2023-02-23T07:00:15;20.85;;;13.20;;
8349;SDS011;60699;48.946;8.412;2023-02-23T07:02:43;17.05;;;11.70;;
8349;SDS011;60699;48.946;8.412;2023-02-23T07:05:10;19.88;;;12.00;;
8349;SDS011;60699;48.946;8.412;2023-02-23T07:07:38;20.00;;;12.18;;
8349;SDS011;60699;48.946;8.412;2023-02-23T07:10:05;17.75;;;12.13;;
8349;SDS011;60699;48.946;8.412;2023-02-23T07:12:32;17.83;;;11.75;;
8349;SDS011;60699;48.946;8.412;2023-02-23T07:14:59;19.15;;;12.85;;
8349;SDS011;60699;48.946;8.412;2023-02-23T07:17:26;18.17;;;11.88;;
8349;SDS011;60699;48.946;8.412;2023-02-23T07:19:53;16.55;;;11.32;;
8349;SDS011;60699;48.946;8.412;2023-02-23T07:22:21;14.45;;;11.00;;
8349;SDS011;60699;48.946;8.412;2023-02-23T07:24:50;14.90;;;11.05;;
8349;SDS011;60699;48.946;8.412;2023-02-23T07:27:17;18.67;;;12.70;;
8349;SDS011;60699;48.946;8.412;2023-02-23T07:29:44;18.48;;;12.55;;
8349;SDS011;60699;48.946;8.412;2023-02-23T07:32:11;20.35;;;12.10;;
8349;SDS011;60699;48.946;8.412;2023-02-23T07:34:38;16.90;;;11.57;;
8349;SDS011;60699;48.946;8.412;2023-02-23T07:37:05;22.17;;;12.70;;
8349;SDS011;60699;48.946;8.412;2023-02-23T07:39:32;12.30;;;9.48;;
8349;SDS011;60699;48.946;8.412;2023-02-23T07:42:00;17.15;;;11.40;;
8349;SDS011;60699;48.946;8.412;2023-02-23T07:44:27;15.02;;;11.60;;
8349;SDS011;60699;48.946;8.412;2023-02-23T07:46:54;18.17;;;10.98;;
8349;SDS011;60699;48.946;8.412;2023-02-23T07:49:21;17.45;;;12.00;;
8349;SDS011;60699;48.946;8.412;2023-02-23T07:51:49;21.27;;;13.40;;
8349;SDS011;60699;48.946;8.412;2023-02-23T07:54:16;15.38;;;10.98;;
8349;SDS011;60699;48.946;8.412;2023-02-23T07:56:43;16.02;;;10.77;;
8349;SDS011;60699;48.946;8.412;2023-02-23T07:59:11;23.00;;;12.48;;
8349;SDS011;60699;48.946;8.412;2023-02-23T08:01:39;20.50;;;11.77;;
8349;SDS011;60699;48.946;8.412;2023-02-23T08:04:06;15.85;;;11.15;;
8349;SDS011;60699;48.946;8.412;2023-02-23T08:06:34;17.05;;;10.77;;
8349;SDS011;60699;48.946;8.412;2023-02-23T08:09:02;16.90;;;12.20;;
8349;SDS011;60699;48.946;8.412;2023-02-23T08:11:29;13.82;;;11.10;;
8349;SDS011;60699;48.946;8.412;2023-02-23T08:13:56;21.90;;;13.85;;
8349;SDS011;60699;48.946;8.412;2023-02-23T08:16:25;19.10;;;12.75;;
8349;SDS011;60699;48.946;8.412;2023-02-23T08:18:52;19.17;;;12.65;;
8349;SDS011;60699;48.946;8.412;2023-02-23T08:21:20;20.60;;;13.10;;
8349;SDS011;60699;48.946;8.412;2023-02-23T08:23:47;16.10;;;11.18;;
8349;SDS011;60699;48.946;8.412;2023-02-23T08:26:14;15.57;;;11.52;;
8349;SDS011;60699;48.946;8.412;2023-02-23T08:28:41;18.02;;;13.25;;
8349;SDS011;60699;48.946;8.412;2023-02-23T08:31:10;19.38;;;13.25;;
8349;SDS011;60699;48.946;8.412;2023-02-23T08:33:39;16.65;;;12.10;;
8349;SDS011;60699;48.946;8.412;2023-02-23T08:36:06;22.50;;;12.20;;
8349;SDS011;60699;48.946;8.412;2023-02-23T08:38:33;20.55;;;14.68;;
8349;SDS011;60699;48.946;8.412;2023-02-23T08:41:01;19.15;;;12.80;;
8349;SDS011;60699;48.946;8.412;2023-02-23T08:43:28;19.90;;;11.95;;
8349;SDS011;60699;48.946;8.412;2023-02-23T08:45:56;19.08;;;11.90;;
8349;SDS011;60699;48.946;8.412;2023-02-23T08:48:23;15.98;;;11.32;;
8349;SDS011;60699;48.946;8.412;2023-02-23T08:50:54;17.33;;;10.80;;
8349;SDS011;60699;48.946;8.412;2023-02-23T08:53:21;18.30;;;12.50;;
8349;SDS011;60699;48.946;8.412;2023-02-23T08:55:53;18.95;;;12.48;;
8349;SDS011;60699;48.946;8.412;2023-02-23T08:58:20;17.50;;;10.70;;
8349;SDS011;60699;48.946;8.412;2023-02-23T09:00:47;14.63;;;11.80;;
8349;SDS011;60699;48.946;8.412;2023-02-23T09:03:14;19.88;;;13.23;;
8349;SDS011;60699;48.946;8.412;2023-02-23T09:05:41;18.75;;;11.18;;
8349;SDS011;60699;48.946;8.412;2023-02-23T09:08:10;15.77;;;11.18;;
8349;SDS011;60699;48.946;8.412;2023-02-23T09:10:37;17.13;;;10.90;;
8349;SDS011;60699;48.946;8.412;2023-02-23T09:13:04;19.90;;;13.43;;
8349;SDS011;60699;48.946;8.412;2023-02-23T09:15:31;21.83;;;12.55;;
8349;SDS011;60699;48.946;8.412;2023-02-23T09:17:59;17.75;;;11.43;;
8349;SDS011;60699;48.946;8.412;2023-02-23T09:20:26;18.90;;;11.60;;
8349;SDS011;60699;48.946;8.412;2023-02-23T09:22:53;18.73;;;13.10;;
8349;SDS011;60699;48.946;8.412;2023-02-23T09:25:22;16.67;;;10.88;;
8349;SDS011;60699;48.946;8.412;2023-02-23T09:27:49;17.15;;;10.77;;
8349;SDS011;60699;48.946;8.412;2023-02-23T09:30:17;18.40;;;13.05;;
8349;SDS011;60699;48.946;8.412;2023-02-23T09:32:45;18.77;;;13.50;;
8349;SDS011;60699;48.946;8.412;2023-02-23T09:35:12;21.80;;;12.57;;
8349;SDS011;60699;48.946;8.412;2023-02-23T09:37:41;18.38;;;12.88;;
8349;SDS011;60699;48.946;8.412;2023-02-23T09:40:12;16.55;;;11.82;;
8349;SDS011;60699;48.946;8.412;2023-02-23T09:42:41;18.30;;;12.25;;
8349;SDS011;60699;48.946;8.412;2023-02-23T09:45:16;22.95;;;12.95;;
8349;SDS011;60699;48.946;8.412;2023-02-23T09:47:48;20.02;;;11.15;;
8349;SDS011;60699;48.946;8.412;2023-02-23T09:50:17;20.02;;;12.77;;
8349;SDS011;60699;48.946;8.412;2023-02-23T09:52:47;18.48;;;13.00;;
8349;SDS011;60699;48.946;8.412;2023-02-23T09:55:15;19.95;;;13.52;;
8349;SDS011;60699;48.946;8.412;2023-02-23T09:57:44;20.25;;;13.90;;
8349;SDS011;60699;48.946;8.412;2023-02-23T10:00:15;21.85;;;12.07;;
8349;SDS011;60699;48.946;8.412;2023-02-23T10:02:47;12.90;;;9.95;;
8349;SDS011;60699;48.946;8.412;2023-02-23T10:05:18;18.45;;;11.23;;
8349;SDS011;60699;48.946;8.412;2023-02-23T10:07:46;15.40;;;11.20;;
8349;SDS011;60699;48.946;8.412;2023-02-23T10:10:19;20.33;;;12.23;;
8349;SDS011;60699;48.946;8.412;2023-02-23T10:12:52;13.48;;;9.23;;
8349;SDS011;60699;48.946;8.412;2023-02-23T10:15:24;16.58;;;11.15;;
8349;SDS011;60699;48.946;8.412;2023-02-23T10:17:54;19.80;;;12.18;;
8349;SDS011;60699;48.946;8.412;2023-02-23T10:20:29;20.52;;;12.27;;
8349;SDS011;60699;48.946;8.412;2023-02-23T10:23:00;22.80;;;12.45;;
8349;SDS011;60699;48.946;8.412;2023-02-23T10:25:29;17.83;;;11.75;;
8349;SDS011;60699;48.946;8.412;2023-02-23T10:27:58;20.75;;;12.68;;
8349;SDS011;60699;48.946;8.412;2023-02-23T10:30:27;15.23;;;11.40;;
8349;SDS011;60699;48.946;8.412;2023-02-23T10:32:56;17.23;;;12.52;;
8349;SDS011;60699;48.946;8.412;2023-02-23T10:35:25;19.08;;;13.88;;
8349;SDS011;60699;48.946;8.412;2023-02-23T10:37:53;20.33;;;12.73;;
8349;SDS011;60699;48.946;8.412;2023-02-23T10:40:21;15.63;;;11.80;;
8349;SDS011;60699;48.946;8.412;2023-02-23T10:42:48;17.15;;;11.40;;
8349;SDS011;60699;48.946;8.412;2023-02-23T10:45:18;16.00;;;11.48;;
8349;SDS011;60699;48.946;8.412;2023-02-23T10:47:51;20.67;;;11.80;;
8349;SDS011;60699;48.946;8.412;2023-02-23T10:50:19;22.23;;;14.18;;
8349;SDS011;60699;48.946;8.412;2023-02-23T10:52:47;20.95;;;11.70;;
8349;SDS011;60699;48.946;8.412;2023-02-23T10:55:22;16.70;;;11.60;;
8349;SDS011;60699;48.946;8.412;2023-02-23T10:57:49;15.07;;;11.43;;
8349;SDS011;60699;48.946;8.412;2023-02-23T11:00:29;15.38;;;10.82;;
8349;SDS011;60699;48.946;8.412;2023-02-23T11:02:57;20.27;;;11.95;;
8349;SDS011;60699;48.946;8.412;2023-02-23T11:05:32;28.33;;;13.65;;
8349;SDS011;60699;48.946;8.412;2023-02-23T11:08:10;19.95;;;11.68;;
8349;SDS011;60699;48.946;8.412;2023-02-23T11:10:40;21.52;;;10.82;;
8349;SDS011;60699;48.946;8.412;2023-02-23T11:13:16;19.42;;;11.10;;
8349;SDS011;60699;48.946;8.412;2023-02-23T11:15:48;17.02;;;11.15;;
8349;SDS011;60699;48.946;8.412;2023-02-23T11:18:17;21.70;;;11.90;;
8349;SDS011;60699;48.946;8.412;2023-02-23T11:20:45;18.27;;;10.68;;
8349;SDS011;60699;48.946;8.412;2023-02-23T11:23:14;19.38;;;11.05;;
8349;SDS011;60699;48.946;8.412;2023-02-23T11:25:42;20.70;;;11.90;;
8349;SDS011;60699;48.946;8.412;2023-02-23T11:28:14;16.38;;;10.93;;
8349;SDS011;60699;48.946;8.412;2023-02-23T11:30:45;18.98;;;10.57;;
8349;SDS011;60699;48.946;8.412;2023-02-23T11:33:14;15.23;;;9.80;;
8349;SDS011;60699;48.946;8.412;2023-02-23T11:35:42;20.38;;;10.50;;
8349;SDS011;60699;48.946;8.412;2023-02-23T11:38:19;15.77;;;11.48;;
8349;SDS011;60699;48.946;8.412;2023-02-23T11:40:56;24.05;;;11.77;;
8349;SDS011;60699;48.946;8.412;2023-02-23T11:43:24;12.13;;;9.95;;
8349;SDS011;60699;48.946;8.412;2023-02-23T11:45:51;20.38;;;9.95;;
8349;SDS011;60699;48.946;8.412;2023-02-23T11:48:22;12.73;;;9.02;;
8349;SDS011;60699;48.946;8.412;2023-02-23T11:50:51;14.75;;;10.18;;
8349;SDS011;60699;48.946;8.412;2023-02-23T11:53:20;17.17;;;12.32;;
8349;SDS011;60699;48.946;8.412;2023-02-23T11:55:52;19.08;;;11.40;;
8349;SDS011;60699;48.946;8.412;2023-02-23T11:58:21;15.10;;;11.23;;
8349;SDS011;60699;48.946;8.412;2023-02-23T12:00:55;21.45;;;12.20;;
8349;SDS011;60699;48.946;8.412;2023-02-23T12:03:24;15.38;;;11.70;;
8349;SDS011;60699;48.946;8.412;2023-02-23T12:05:52;14.73;;;10.35;;
8349;SDS011;60699;48.946;8.412;2023-02-23T12:08:24;13.63;;;9.93;;
8349;SDS011;60699;48.946;8.412;2023-02-23T12:10:56;15.48;;;10.05;;
8349;SDS011;60699;48.946;8.412;2023-02-23T12:13:25;17.95;;;10.48;;
8349;SDS011;60699;48.946;8.412;2023-02-23T12:15:53;19.35;;;11.07;;
8349;SDS011;60699;48.946;8.412;2023-02-23T12:21:28;17.60;;;9.63;;
8349;SDS011;60699;48.946;8.412;2023-02-23T12:23:58;15.43;;;11.07;;
8349;SDS011;60699;48.946;8.412;2023-02-23T12:26:28;13.50;;;10.07;;
8349;SDS011;60699;48.946;8.412;2023-02-23T12:28:58;20.65;;;10.20;;
8349;SDS011;60699;48.946;8.412;2023-02-23T12:31:26;21.63;;;11.40;;
8349;SDS011;60699;48.946;8.412;2023-02-23T12:33:54;22.10;;;11.60;;
8349;SDS011;60699;48.946;8.412;2023-02-23T12:36:25;16.02;;;11.63;;
8349;SDS011;60699;48.946;8.412;2023-02-23T12:38:56;14.82;;;10.73;;
8349;SDS011;60699;48.946;8.412;2023-02-23T12:41:25;19.95;;;9.95;;
8349;SDS011;60699;48.946;8.412;2023-02-23T12:43:58;17.90;;;10.13;;
8349;SDS011;60699;48.946;8.412;2023-02-23T12:46:27;18.52;;;10.45;;
8349;SDS011;60699;48.946;8.412;2023-02-23T12:48:59;15.57;;;11.32;;
8349;SDS011;60699;48.946;8.412;2023-02-23T12:51:29;16.20;;;10.98;;
8349;SDS011;60699;48.946;8.412;2023-02-23T12:53:57;13.25;;;9.18;;
8349;SDS011;60699;48.946;8.412;2023-02-23T12:56:32;18.83;;;11.80;;
8349;SDS011;60699;48.946;8.412;2023-02-23T12:59:04;14.40;;;9.57;;
8349;SDS011;60699;48.946;8.412;2023-02-23T13:01:38;18.70;;;10.85;;
8349;SDS011;60699;48.946;8.412;2023-02-23T13:04:14;16.20;;;10.52;;
8349;SDS011;60699;48.946;8.412;2023-02-23T13:06:48;15.18;;;9.70;;
8349;SDS011;60699;48.946;8.412;2023-02-23T13:09:23;19.80;;;10.23;;
8349;SDS011;60699;48.946;8.412;2023-02-23T13:11:57;16.63;;;10.57;;
8349;SDS011;60699;48.946;8.412;2023-02-23T13:14:32;17.42;;;9.68;;
8349;SDS011;60699;48.946;8.412;2023-02-23T13:17:01;15.73;;;10.70;;
8349;SDS011;60699;48.946;8.412;2023-02-23T13:19:33;18.92;;;11.13;;
8349;SDS011;60699;48.946;8.412;2023-02-23T13:22:05;16.10;;;10.68;;
8349;SDS011;60699;48.946;8.412;2023-02-23T13:24:37;16.35;;;10.02;;
8349;SDS011;60699;48.946;8.412;2023-02-23T13:27:06;18.85;;;9.50;;
8349;SDS011;60699;48.946;8.412;2023-02-23T13:29:36;20.45;;;11.00;;
8349;SDS011;60699;48.946;8.412;2023-02-23T13:32:07;20.73;;;10.27;;
8349;SDS011;60699;48.946;8.412;2023-02-23T13:34:35;22.13;;;9.50;;
8349;SDS011;60699;48.946;8.412;2023-02-23T13:37:06;13.70;;;9.73;;
8349;SDS011;60699;48.946;8.412;2023-02-23T13:39:44;17.55;;;9.40;;
8349;SDS011;60699;48.946;8.412;2023-02-23T13:44:57;16.85;;;11.07;;
8349;SDS011;60699;48.946;8.412;2023-02-23T13:47:31;19.45;;;10.02;;
8349;SDS011;60699;48.946;8.412;2023-02-23T13:50:01;18.38;;;10.75;;
8349;SDS011;60699;48.946;8.412;2023-02-23T13:52:35;18.70;;;9.50;;
8349;SDS011;60699;48.946;8.412;2023-02-23T13:55:07;14.40;;;9.43;;
8349;SDS011;60699;48.946;8.412;2023-02-23T13:57:50;20.45;;;12.02;;
8349;SDS011;60699;48.946;8.412;2023-02-23T14:00:18;14.88;;;9.73;;
8349;SDS011;60699;48.946;8.412;2023-02-23T14:02:45;13.50;;;9.00;;
8349;SDS011;60699;48.946;8.412;2023-02-23T14:05:15;12.18;;;9.15;;
8349;SDS011;60699;48.946;8.412;2023-02-23T14:07:46;12.23;;;9.50;;
8349;SDS011;60699;48.946;8.412;2023-02-23T14:10:15;13.25;;;8.68;;
8349;SDS011;60699;48.946;8.412;2023-02-23T14:15:39;10.40;;;7.57;;
8349;SDS011;60699;48.946;8.412;2023-02-23T14:20:55;12.73;;;8.48;;
8349;SDS011;60699;48.946;8.412;2023-02-23T14:23:31;13.50;;;8.15;;
8349;SDS011;60699;48.946;8.412;2023-02-23T14:26:10;12.82;;;8.48;;
8349;SDS011;60699;48.946;8.412;2023-02-23T14:28:39;10.40;;;7.78;;
8349;SDS011;60699;48.946;8.412;2023-02-23T14:31:15;10.25;;;7.80;;
8349;SDS011;60699;48.946;8.412;2023-02-23T14:33:48;10.13;;;7.22;;
8349;SDS011;60699;48.946;8.412;2023-02-23T14:36:35;11.05;;;6.65;;
8349;SDS011;60699;48.946;8.412;2023-02-23T14:39:08;8.02;;;6.65;;
8349;SDS011;60699;48.946;8.412;2023-02-23T14:41:38;10.60;;;6.72;;
8349;SDS011;60699;48.946;8.412;2023-02-23T14:44:07;9.23;;;7.20;;
8349;SDS011;60699;48.946;8.412;2023-02-23T14:46:37;7.60;;;6.50;;
8349;SDS011;60699;48.946;8.412;2023-02-23T14:49:14;12.95;;;6.72;;
8349;SDS011;60699;48.946;8.412;2023-02-23T14:51:44;10.80;;;6.00;;
8349;SDS011;60699;48.946;8.412;2023-02-23T14:54:21;7.20;;;5.32;;
8349;SDS011;60699;48.946;8.412;2023-02-23T14:56:50;6.78;;;4.55;;
8349;SDS011;60699;48.946;8.412;2023-02-23T14:59:18;8.82;;;5.22;;
8349;SDS011;60699;48.946;8.412;2023-02-23T15:01:47;7.80;;;5.75;;
8349;SDS011;60699;48.946;8.412;2023-02-23T15:04:15;6.68;;;5.93;;
8349;SDS011;60699;48.946;8.412;2023-02-23T15:06:43;5.95;;;5.30;;
8349;SDS011;60699;48.946;8.412;2023-02-23T15:09:14;7.40;;;6.63;;
8349;SDS011;60699;48.946;8.412;2023-02-23T15:11:43;9.30;;;7.63;;
8349;SDS011;60699;48.946;8.412;2023-02-23T15:14:14;8.75;;;5.40;;